Time;durP1;ratioP1;P1;durP2;ratioP2;P2;SDS_P1;SDS_P2;PMS_P1;PMS_P2;Temp;Humidity;BMP_temperature;BMP_pressure;BME280_temperature;BME280_humidity;BME280_pressure;Samples;Min_cycle;Max_cycle;Signal;HPM_P1;HPM_P2
2021/07/24 00:02:27;;;;;;;16.23;11.65;;;19.80;4.00;;;;;;5079817;28;20040;-73
2021/07/24 00:05:15;;;;;;;17.25;12.02;;;19.70;4.10;;;;;;5080773;28;20055;-73
2021/07/24 00:08:04;;;;;;;19.10;12.77;;;19.70;4.30;;;;;;5078692;28;20073;-73
2021/07/24 00:10:53;;;;;;;17.67;12.38;;;19.80;4.50;;;;;;5058358;28;20052;-74
2021/07/24 00:13:41;;;;;;;15.95;12.63;;;19.70;4.80;;;;;;5052892;28;20523;-73
2021/07/24 00:16:30;;;;;;;18.20;12.55;;;19.60;5.10;;;;;;5081488;28;20052;-74
2021/07/24 00:19:20;;;;;;;15.80;12.20;;;19.60;5.70;;;;;;5066352;28;20048;-74
2021/07/24 00:22:11;;;;;;;17.13;11.73;;;19.60;5.00;;;;;;5079246;28;20040;-73
2021/07/24 00:24:59;;;;;;;15.63;11.30;;;19.70;4.30;;;;;;5074639;28;20052;-74
2021/07/24 00:27:55;;;;;;;14.73;11.43;;;19.80;3.30;;;;;;5063793;28;20040;-74
2021/07/24 00:30:44;;;;;;;17.33;12.13;;;19.90;3.20;;;;;;5081414;28;20040;-74
2021/07/24 00:33:40;;;;;;;17.70;11.32;;;19.90;3.20;;;;;;5083636;28;20491;-74
2021/07/24 00:36:31;;;;;;;14.93;11.50;;;19.90;2.40;;;;;;5074290;28;20048;-75
2021/07/24 00:39:22;;;;;;;18.95;11.80;;;20.10;1.90;;;;;;5076920;28;20055;-74
2021/07/24 00:42:15;;;;;;;16.52;11.85;;;20.20;1.00;;;;;;5080770;28;20048;-74
2021/07/24 00:45:06;;;;;;;15.20;11.10;;;20.20;1.00;;;;;;5053917;28;20538;-75
2021/07/24 00:47:57;;;;;;;16.35;11.82;;;20.20;1.00;;;;;;5077220;28;20048;-76
2021/07/24 00:51:08;;;;;;;19.40;12.15;;;20.10;1.20;;;;;;5074607;28;20077;-74
2021/07/24 00:53:59;;;;;;;17.33;12.10;;;19.90;2.00;;;;;;5075207;28;20083;-75
2021/07/24 00:56:50;;;;;;;14.52;11.75;;;19.90;2.40;;;;;;5077440;28;20059;-75
2021/07/24 00:59:38;;;;;;;14.07;11.43;;;19.90;2.30;;;;;;5062539;28;20053;-76
2021/07/24 01:02:27;;;;;;;14.18;11.00;;;19.90;1.90;;;;;;5079173;28;20189;-76
2021/07/24 01:05:16;;;;;;;19.83;11.90;;;19.80;2.40;;;;;;5062896;28;20044;-76
2021/07/24 01:08:05;;;;;;;16.83;11.52;;;19.70;3.00;;;;;;5052380;28;20048;-76
2021/07/24 01:10:55;;;;;;;18.50;11.45;;;19.60;3.00;;;;;;5050208;28;20538;-76
2021/07/24 01:13:45;;;;;;;17.83;11.95;;;19.70;2.10;;;;;;5052875;28;20059;-76
2021/07/24 01:16:34;;;;;;;14.02;11.52;;;19.60;3.00;;;;;;5052421;28;20067;-75
2021/07/24 01:19:34;;;;;;;15.52;11.55;;;19.60;3.00;;;;;;5067711;28;20515;-75
2021/07/24 01:22:27;;;;;;;17.02;11.60;;;19.50;3.40;;;;;;5058503;28;20040;-75
2021/07/24 01:25:17;;;;;;;14.07;11.57;;;19.40;4.20;;;;;;5074474;28;20040;-76
2021/07/24 01:28:06;;;;;;;19.02;12.55;;;19.20;5.60;;;;;;5070112;28;20384;-75
2021/07/24 01:30:55;;;;;;;18.60;12.98;;;19.00;7.10;;;;;;5067421;28;20056;-75
2021/07/24 01:33:46;;;;;;;17.10;12.40;;;18.90;8.50;;;;;;5074489;28;20396;-75
2021/07/24 01:36:35;;;;;;;19.42;11.98;;;18.80;9.20;;;;;;5062098;28;20046;-75
2021/07/24 01:39:26;;;;;;;16.02;11.85;;;18.80;9.70;;;;;;5077829;28;20050;-75
2021/07/24 01:42:15;;;;;;;16.40;12.02;;;18.80;10.10;;;;;;5076433;28;20131;-72
2021/07/24 01:45:11;;;;;;;14.90;12.15;;;18.70;10.00;;;;;;5063780;28;20584;-73
2021/07/24 01:48:00;;;;;;;15.55;12.27;;;18.70;10.00;;;;;;5080412;28;20044;-75
2021/07/24 01:53:54;;;;;;;16.20;11.98;;;18.60;9.70;;;;;;5070998;28;20127;-74
2021/07/24 01:56:49;;;;;;;17.25;12.07;;;18.60;9.90;;;;;;5081695;28;20051;-74
2021/07/24 01:59:44;;;;;;;20.40;12.75;;;18.60;9.70;;;;;;5065020;28;20054;-74
2021/07/24 02:02:33;;;;;;;17.83;12.07;;;18.70;9.30;;;;;;5079284;28;20048;-73
2021/07/24 02:05:29;;;;;;;18.20;12.48;;;18.70;9.00;;;;;;5064597;28;20090;-74
2021/07/24 02:08:20;;;;;;;15.95;11.98;;;18.70;9.00;;;;;;5083547;28;20553;-73
2021/07/24 02:11:12;;;;;;;17.75;12.10;;;18.70;9.30;;;;;;5068023;28;20065;-73
2021/07/24 02:14:02;;;;;;;21.27;12.52;;;18.80;8.80;;;;;;5068725;28;20494;-74
2021/07/24 02:16:50;;;;;;;15.38;11.88;;;18.90;9.40;;;;;;5066427;28;20058;-73
2021/07/24 02:19:46;;;;;;;14.13;11.63;;;18.90;8.80;;;;;;5066314;28;20042;-74
2021/07/24 02:22:34;;;;;;;17.25;11.80;;;18.90;9.00;;;;;;5078710;28;20060;-72
2021/07/24 02:25:24;;;;;;;21.63;12.70;;;18.80;9.30;;;;;;5067642;28;20048;-72
2021/07/24 02:28:16;;;;;;;16.70;12.57;;;18.80;9.40;;;;;;5079281;28;20040;-73
2021/07/24 02:31:06;;;;;;;17.77;11.93;;;18.70;10.00;;;;;;5064133;28;20125;-73
2021/07/24 02:33:59;;;;;;;19.88;12.52;;;18.70;10.50;;;;;;5080640;28;20423;-74
2021/07/24 02:36:48;;;;;;;17.20;12.30;;;18.80;10.50;;;;;;5068423;28;20082;-73
2021/07/24 02:39:36;;;;;;;15.52;12.25;;;18.60;10.50;;;;;;5084319;28;20052;-73
2021/07/24 02:42:25;;;;;;;19.45;11.85;;;18.70;11.20;;;;;;5074761;28;20055;-73
2021/07/24 02:45:15;;;;;;;19.80;12.75;;;18.70;10.50;;;;;;5064270;28;20092;-72
2021/07/24 02:48:05;;;;;;;20.23;12.82;;;18.80;10.10;;;;;;5066734;28;20178;-74
2021/07/24 02:51:02;;;;;;;18.70;13.25;;;18.80;10.10;;;;;;5071310;28;20048;-73
2021/07/24 02:53:52;;;;;;;14.75;12.10;;;18.80;10.10;;;;;;5070071;28;20046;-73
2021/07/24 02:56:41;;;;;;;16.50;12.57;;;18.80;10.20;;;;;;5053821;28;20066;-73
2021/07/24 02:59:30;;;;;;;16.70;12.40;;;18.90;10.20;;;;;;5064262;28;20540;-72
2021/07/24 03:02:19;;;;;;;15.32;12.43;;;19.00;8.70;;;;;;5071403;28;20050;-73
2021/07/24 03:05:13;;;;;;;14.57;11.07;;;19.20;8.90;;;;;;5074514;28;20089;-73
2021/07/24 03:08:01;;;;;;;19.48;12.43;;;19.20;7.50;;;;;;5080858;28;20146;-73
2021/07/24 03:10:50;;;;;;;16.77;12.75;;;19.30;7.30;;;;;;5079544;28;20415;-73
2021/07/24 03:13:38;;;;;;;20.30;14.77;;;19.30;6.70;;;;;;5077807;28;20556;-73
2021/07/24 03:16:27;;;;;;;19.70;13.60;;;19.30;6.90;;;;;;5083543;28;20490;-73
2021/07/24 03:19:15;;;;;;;19.92;13.70;;;19.40;7.10;;;;;;5078104;28;20062;-72
2021/07/24 03:22:05;;;;;;;20.13;14.13;;;19.40;6.90;;;;;;5076621;28;20506;-73
2021/07/24 03:24:59;;;;;;;21.02;14.93;;;19.20;7.80;;;;;;5081050;28;20052;-73
2021/07/24 03:27:48;;;;;;;17.90;14.30;;;19.20;9.20;;;;;;5079600;28;20085;-73
2021/07/24 03:30:38;;;;;;;20.48;14.82;;;19.20;8.40;;;;;;5082698;28;20043;-71
2021/07/24 03:33:26;;;;;;;24.05;14.70;;;19.30;8.00;;;;;;5077382;28;20125;-72
2021/07/24 03:36:14;;;;;;;17.75;13.10;;;19.20;8.60;;;;;;5075700;28;20044;-71
2021/07/24 03:39:05;;;;;;;15.32;12.43;;;19.10;9.80;;;;;;5080828;28;20049;-72
2021/07/24 03:41:53;;;;;;;18.75;12.75;;;18.90;10.20;;;;;;5084769;28;20052;-72
2021/07/24 03:44:42;;;;;;;17.95;13.15;;;18.90;10.10;;;;;;5081832;28;20596;-72
2021/07/24 03:47:32;;;;;;;18.60;14.05;;;18.90;10.20;;;;;;5063749;28;20067;-72
2021/07/24 03:50:20;;;;;;;20.55;13.57;;;19.00;10.20;;;;;;5076020;28;20052;-72
2021/07/24 03:53:09;;;;;;;21.73;14.27;;;19.10;9.70;;;;;;5080286;28;20061;-73
2021/07/24 03:55:58;;;;;;;18.58;12.88;;;19.10;9.10;;;;;;5066992;28;20059;-74
2021/07/24 03:58:49;;;;;;;17.17;12.40;;;19.10;9.90;;;;;;5078740;28;20047;-72
2021/07/24 04:01:39;;;;;;;14.13;11.57;;;19.10;10.50;;;;;;5076691;28;20052;-71
2021/07/24 04:04:28;;;;;;;15.43;12.40;;;19.10;9.90;;;;;;5080948;28;20036;-72
2021/07/24 04:07:16;;;;;;;17.75;13.10;;;19.20;8.90;;;;;;5079154;28;20072;-72
2021/07/24 04:10:07;;;;;;;17.27;12.48;;;19.20;8.50;;;;;;5078853;28;20043;-73
2021/07/24 04:12:57;;;;;;;16.52;12.27;;;19.40;7.60;;;;;;5073367;28;20040;-72
2021/07/24 04:15:45;;;;;;;15.88;12.70;;;19.80;5.80;;;;;;5064909;28;20081;-72
2021/07/24 04:18:35;;;;;;;13.65;11.55;;;19.90;4.90;;;;;;5082520;28;20511;-72
2021/07/24 04:21:23;;;;;;;20.15;11.82;;;20.20;3.40;;;;;;5078611;28;20079;-73
2021/07/24 04:24:12;;;;;;;16.50;11.57;;;20.00;3.70;;;;;;5073564;28;20123;-73
2021/07/24 04:27:00;;;;;;;19.05;12.65;;;20.10;2.30;;;;;;5077000;28;20060;-73
2021/07/24 04:29:50;;;;;;;19.80;12.63;;;20.10;2.40;;;;;;5082495;28;20559;-74
2021/07/24 04:32:38;;;;;;;16.15;11.85;;;20.20;3.40;;;;;;5078460;28;20055;-73
2021/07/24 04:35:27;;;;;;;15.45;11.95;;;20.40;2.20;;;;;;5075006;28;20044;-73
2021/07/24 04:38:16;;;;;;;16.30;12.25;;;20.00;3.30;;;;;;5079080;28;20070;-73
2021/07/24 04:41:04;;;;;;;16.13;11.93;;;19.70;4.80;;;;;;5078502;28;20077;-72
2021/07/24 04:43:53;;;;;;;17.27;12.00;;;19.60;6.60;;;;;;5080639;28;20484;-72
2021/07/24 04:46:42;;;;;;;16.27;11.52;;;19.60;6.90;;;;;;5075423;28;20059;-73
2021/07/24 04:49:32;;;;;;;17.52;12.60;;;19.50;7.20;;;;;;5074566;28;20047;-73
2021/07/24 04:52:22;;;;;;;19.13;13.07;;;19.40;7.90;;;;;;5073331;28;20456;-72
2021/07/24 04:55:12;;;;;;;16.85;13.63;;;19.30;8.70;;;;;;5075188;28;20078;-73
2021/07/24 04:58:00;;;;;;;16.77;12.63;;;19.20;9.80;;;;;;5078236;28;20044;-73
2021/07/24 05:00:50;;;;;;;20.48;12.65;;;19.20;10.40;;;;;;5082142;28;20081;-74
2021/07/24 05:03:39;;;;;;;18.85;12.82;;;19.30;10.10;;;;;;5075876;28;20131;-73
2021/07/24 05:06:29;;;;;;;18.67;13.57;;;19.50;9.30;;;;;;5075600;28;20529;-73
2021/07/24 05:09:18;;;;;;;18.70;13.45;;;19.40;9.00;;;;;;5079705;28;20411;-73
2021/07/24 05:12:07;;;;;;;19.15;12.82;;;19.50;9.70;;;;;;5075870;28;20060;-73
2021/07/24 05:14:55;;;;;;;18.05;12.90;;;19.50;9.20;;;;;;5074111;28;20491;-71
2021/07/24 05:17:43;;;;;;;36.35;13.38;;;19.60;9.00;;;;;;5076935;28;20106;-73
2021/07/24 05:20:33;;;;;;;16.23;12.48;;;19.60;9.20;;;;;;5080127;28;20048;-73
2021/07/24 05:23:21;;;;;;;17.33;12.90;;;19.60;8.90;;;;;;5067078;28;20511;-73
2021/07/24 05:26:13;;;;;;;17.65;12.55;;;19.50;9.30;;;;;;5080859;28;20043;-73
2021/07/24 05:29:01;;;;;;;17.27;13.27;;;19.50;9.60;;;;;;5076935;28;20051;-73
2021/07/24 05:31:49;;;;;;;18.83;13.32;;;19.40;10.50;;;;;;5081334;28;21323;-73
2021/07/24 05:34:38;;;;;;;17.60;13.07;;;19.40;10.00;;;;;;5082634;28;20040;-73
2021/07/24 05:37:27;;;;;;;23.65;13.73;;;19.50;10.00;;;;;;5085206;28;20054;-74
2021/07/24 05:40:16;;;;;;;19.65;13.73;;;19.80;9.60;;;;;;5079912;28;20047;-72
2021/07/24 05:43:05;;;;;;;20.60;14.52;;;19.80;8.90;;;;;;5078362;28;20145;-74
2021/07/24 05:45:53;;;;;;;21.00;13.98;;;19.90;8.40;;;;;;5080210;28;20044;-74
2021/07/24 05:48:41;;;;;;;19.25;13.13;;;20.10;7.30;;;;;;5085111;28;20115;-74
2021/07/24 05:51:29;;;;;;;17.42;13.23;;;20.10;6.50;;;;;;5081462;28;20134;-73
2021/07/24 05:54:22;;;;;;;18.05;13.30;;;20.30;5.90;;;;;;5079713;28;20431;-74
2021/07/24 05:57:10;;;;;;;17.52;11.85;;;20.50;4.60;;;;;;5080246;28;20163;-73
2021/07/24 05:59:59;;;;;;;20.27;13.23;;;20.50;3.70;;;;;;5081144;28;20044;-75
2021/07/24 06:02:47;;;;;;;16.27;12.63;;;20.80;2.80;;;;;;5067313;28;20040;-74
2021/07/24 06:05:36;;;;;;;17.10;12.93;;;21.10;1.90;;;;;;5079376;28;20040;-75
2021/07/24 06:08:24;;;;;;;17.35;11.73;;;21.10;2.00;;;;;;5065471;28;20051;-74
2021/07/24 06:11:14;;;;;;;20.25;11.98;;;21.30;1.00;;;;;;5065711;28;20578;-74
2021/07/24 06:14:02;;;;;;;21.73;12.23;;;21.40;1.00;;;;;;5082554;28;20044;-73
2021/07/24 06:16:51;;;;;;;16.10;12.35;;;21.30;1.00;;;;;;5080154;28;20075;-74
2021/07/24 06:19:39;;;;;;;16.92;11.38;;;21.50;1.00;;;;;;5077670;28;20044;-73
2021/07/24 06:22:27;;;;;;;18.48;10.93;;;21.50;1.00;;;;;;5080807;28;20052;-74
2021/07/24 06:25:16;;;;;;;20.45;11.88;;;21.60;1.00;;;;;;5083184;28;20043;-74
2021/07/24 06:28:06;;;;;;;18.33;11.70;;;21.60;1.00;;;;;;5059055;28;20052;-72
2021/07/24 06:30:55;;;;;;;21.77;13.30;;;21.70;1.00;;;;;;5079519;28;20573;-73
2021/07/24 06:33:43;;;;;;;20.05;13.98;;;21.70;1.00;;;;;;5077903;28;20397;-72
2021/07/24 06:36:32;;;;;;;19.02;13.95;;;21.50;1.00;;;;;;5083908;28;20052;-73
2021/07/24 06:39:21;;;;;;;20.98;14.82;;;21.40;1.00;;;;;;5067867;28;20052;-74
2021/07/24 06:42:10;;;;;;;21.67;15.52;;;21.00;6.70;;;;;;5080238;28;20172;-74
2021/07/24 06:45:01;;;;;;;34.75;16.77;;;20.60;15.10;;;;;;5072177;28;20159;-75
2021/07/24 06:47:50;;;;;;;25.52;18.08;;;20.40;17.20;;;;;;5063974;28;20036;-75
2021/07/24 06:50:38;;;;;;;24.67;16.55;;;20.50;23.20;;;;;;5080852;28;20114;-75
2021/07/24 06:53:26;;;;;;;23.83;16.20;;;20.30;18.10;;;;;;5078051;28;20055;-74
2021/07/24 06:56:15;;;;;;;23.55;16.60;;;20.30;22.10;;;;;;5080091;28;20040;-74
2021/07/24 06:59:03;;;;;;;23.70;16.20;;;20.30;20.50;;;;;;5074663;28;20115;-75
2021/07/24 07:01:53;;;;;;;24.35;16.98;;;20.50;20.60;;;;;;5078167;28;20143;-74
2021/07/24 07:04:41;;;;;;;22.80;17.00;;;20.60;22.30;;;;;;5082877;28;20044;-75
2021/07/24 07:07:30;;;;;;;25.88;17.85;;;20.60;24.20;;;;;;5080996;28;20185;-75
2021/07/24 07:10:18;;;;;;;24.70;17.55;;;20.70;28.30;;;;;;5059798;28;20055;-75
2021/07/24 07:13:07;;;;;;;21.67;16.42;;;20.70;23.00;;;;;;5077652;28;20052;-74
2021/07/24 07:15:55;;;;;;;23.30;16.05;;;20.60;21.30;;;;;;5081331;28;20182;-75
2021/07/24 07:18:45;;;;;;;24.80;16.60;;;20.50;22.20;;;;;;5078607;28;20098;-74
2021/07/24 07:21:34;;;;;;;21.33;16.50;;;20.60;22.90;;;;;;5077287;28;20052;-75
2021/07/24 07:24:22;;;;;;;26.35;17.45;;;20.70;22.80;;;;;;5076906;28;20416;-74
2021/07/24 07:27:11;;;;;;;25.08;17.17;;;20.80;24.40;;;;;;5076335;28;20234;-74
2021/07/24 07:29:59;;;;;;;26.77;17.63;;;20.60;22.70;;;;;;5079236;28;20058;-75
2021/07/24 07:32:47;;;;;;;22.42;15.43;;;20.70;23.90;;;;;;5078422;28;20194;-74
2021/07/24 07:35:37;;;;;;;27.73;17.00;;;20.80;22.40;;;;;;5075952;28;20097;-74
2021/07/24 07:38:25;;;;;;;19.95;15.38;;;20.90;23.40;;;;;;5066193;28;20135;-75
2021/07/24 07:41:14;;;;;;;22.35;15.57;;;21.00;20.10;;;;;;5081748;28;20130;-74
2021/07/24 07:44:02;;;;;;;19.73;14.82;;;21.10;20.80;;;;;;5077815;28;20181;-75
2021/07/24 07:46:51;;;;;;;22.58;15.50;;;21.20;21.30;;;;;;5075182;28;20074;-74
2021/07/24 07:49:39;;;;;;;21.90;15.65;;;21.20;20.20;;;;;;5075259;28;20044;-74
2021/07/24 07:52:29;;;;;;;19.27;15.38;;;21.30;20.60;;;;;;5078501;28;20043;-74
2021/07/24 07:55:17;;;;;;;25.92;17.10;;;21.30;20.30;;;;;;5077386;28;20059;-74
2021/07/24 07:58:10;;;;;;;24.35;16.13;;;21.20;19.50;;;;;;5077934;28;20040;-74
2021/07/24 08:00:59;;;;;;;20.88;16.27;;;21.30;18.60;;;;;;5063575;28;20138;-74
2021/07/24 08:03:47;;;;;;;22.85;15.75;;;21.30;16.40;;;;;;5076680;28;20113;-74
2021/07/24 08:06:36;;;;;;;28.38;15.77;;;21.50;16.90;;;;;;5079161;28;20127;-74
2021/07/24 08:09:28;;;;;;;24.02;15.98;;;21.50;15.60;;;;;;5074611;28;20174;-74
2021/07/24 08:12:17;;;;;;;18.60;14.70;;;21.30;13.50;;;;;;5063761;28;20443;-74
2021/07/24 08:15:06;;;;;;;23.77;14.15;;;21.50;11.60;;;;;;5074914;28;20048;-74
2021/07/24 08:17:55;;;;;;;22.83;15.95;;;21.60;10.40;;;;;;5078266;28;20088;-72
2021/07/24 08:20:44;;;;;;;21.98;13.95;;;21.60;11.00;;;;;;5078529;28;20044;-74
2021/07/24 08:23:32;;;;;;;20.75;13.65;;;21.70;7.80;;;;;;5077296;28;20135;-73
2021/07/24 08:26:22;;;;;;;21.05;14.15;;;21.70;7.00;;;;;;5075078;28;20542;-74
2021/07/24 08:29:11;;;;;;;26.05;14.27;;;21.70;8.30;;;;;;5076410;28;20049;-75
2021/07/24 08:31:59;;;;;;;21.65;13.80;;;21.80;8.10;;;;;;5075726;28;20052;-75
2021/07/24 08:34:49;;;;;;;18.83;13.43;;;21.70;7.60;;;;;;5068311;28;20068;-73
2021/07/24 08:37:38;;;;;;;22.08;13.80;;;21.80;9.00;;;;;;5081383;28;20089;-74
2021/07/24 08:40:26;;;;;;;20.77;13.45;;;21.70;10.10;;;;;;5071889;28;20496;-74
2021/07/24 08:43:22;;;;;;;;;;;22.00;7.90;;;;;;5075266;28;20045;-74
2021/07/24 08:46:12;;;;;;;21.67;13.00;;;22.20;7.40;;;;;;5079252;28;19924;-74
2021/07/24 08:49:01;;;;;;;20.80;13.68;;;22.30;6.10;;;;;;5079058;28;20055;-73
2021/07/24 08:51:50;;;;;;;18.70;13.05;;;22.50;7.10;;;;;;5073715;28;20138;-74
2021/07/24 08:54:42;;;;;;;16.88;12.43;;;22.70;2.20;;;;;;5078038;28;20063;-73
2021/07/24 08:57:33;;;;;;;18.67;12.93;;;23.10;1.60;;;;;;5083261;28;20052;-74
2021/07/24 09:00:26;;;;;;;16.88;13.05;;;23.10;1.60;;;;;;5081114;28;20043;-74
2021/07/24 09:03:19;;;;;;;17.02;11.63;;;23.00;1.50;;;;;;5082963;28;20429;-73
2021/07/24 09:06:10;;;;;;;18.48;11.13;;;23.30;1.00;;;;;;5081243;28;20044;-74
2021/07/24 09:08:59;;;;;;;17.02;11.48;;;23.30;1.00;;;;;;5079562;28;20131;-74
2021/07/24 09:11:47;;;;;;;16.23;11.60;;;23.40;1.00;;;;;;5080830;28;20512;-74
2021/07/24 09:14:36;;;;;;;17.23;11.75;;;23.60;1.00;;;;;;5084281;28;20056;-74
2021/07/24 09:17:26;;;;;;;16.27;11.68;;;23.80;1.00;;;;;;5068726;28;20101;-74
2021/07/24 09:20:17;;;;;;;15.25;11.70;;;24.10;1.00;;;;;;5078419;28;20051;-75
2021/07/24 09:23:27;;;;;;;18.08;10.82;;;24.40;1.00;;;;;;5078752;28;20040;-73
2021/07/24 09:26:33;;;;;;;14.18;10.68;;;24.60;1.00;;;;;;5085236;28;20049;-74
2021/07/24 09:29:23;;;;;;;15.77;10.70;;;25.40;1.00;;;;;;5084273;28;20137;-74
2021/07/24 09:32:11;;;;;;;13.88;9.65;;;25.80;1.00;;;;;;5079521;28;20071;-74
2021/07/24 09:35:01;;;;;;;17.60;9.00;;;26.00;1.00;;;;;;5076864;28;20060;-73
2021/07/24 09:37:50;;;;;;;14.90;11.23;;;25.90;1.00;;;;;;5080349;28;20048;-73
2021/07/24 09:40:39;;;;;;;14.93;10.18;;;25.80;1.00;;;;;;5082667;28;20044;-74
2021/07/24 09:43:33;;;;;;;17.45;10.07;;;26.20;1.00;;;;;;5083174;28;20522;-75
2021/07/24 09:46:22;;;;;;;12.65;9.15;;;26.50;1.00;;;;;;5061022;28;20057;-75
2021/07/24 09:49:13;;;;;;;13.50;8.63;;;26.00;1.00;;;;;;5078881;28;20045;-73
2021/07/24 09:52:14;;;;;;;11.25;8.40;;;25.70;1.00;;;;;;5081414;28;20502;-73
2021/07/24 09:55:17;;;;;;;15.85;9.15;;;26.40;1.00;;;;;;5070837;28;20082;-74
2021/07/24 09:58:20;;;;;;;11.75;8.85;;;26.60;1.00;;;;;;5086748;28;20097;-74
2021/07/24 10:01:10;;;;;;;10.23;8.30;;;26.80;1.00;;;;;;5079988;28;20043;-74
2021/07/24 10:04:03;;;;;;;13.73;8.52;;;26.90;1.00;;;;;;5079907;28;20044;-74
2021/07/24 10:06:56;;;;;;;11.10;8.60;;;26.80;1.00;;;;;;5078325;28;20060;-74
2021/07/24 10:09:46;;;;;;;12.30;9.40;;;26.70;1.00;;;;;;5080649;28;22092;-74
2021/07/24 10:12:35;;;;;;;15.63;9.98;;;26.80;1.00;;;;;;5081725;28;20048;-74
2021/07/24 10:15:25;;;;;;;14.43;10.02;;;26.60;1.00;;;;;;5079057;28;20052;-74
2021/07/24 10:18:15;;;;;;;13.07;10.07;;;26.80;1.00;;;;;;5065807;28;20110;-74
2021/07/24 10:21:04;;;;;;;14.65;9.55;;;27.20;1.00;;;;;;5065956;28;20850;-73
2021/07/24 10:23:52;;;;;;;14.85;9.30;;;27.50;1.00;;;;;;5079612;28;20421;-74
2021/07/24 10:26:50;;;;;;;11.57;9.07;;;27.00;1.00;;;;;;5082801;28;20406;-74
2021/07/24 10:29:45;;;;;;;15.10;9.90;;;27.40;1.00;;;;;;5066853;28;20046;-73
2021/07/24 10:32:37;;;;;;;11.60;9.30;;;27.20;1.00;;;;;;5058290;28;20055;-73
2021/07/24 10:35:39;;;;;;;11.55;8.73;;;27.00;1.00;;;;;;5075551;28;20080;-74
2021/07/24 10:38:30;;;;;;;13.32;8.90;;;26.90;1.00;;;;;;5079895;28;20495;-74
2021/07/24 10:41:43;;;;;;;15.38;9.40;;;27.20;1.00;;;;;;5084763;28;20040;-73
2021/07/24 10:44:39;;;;;;;15.07;9.63;;;27.50;1.00;;;;;;5083893;28;20086;-73
2021/07/24 10:47:28;;;;;;;14.57;9.43;;;26.80;1.00;;;;;;5064934;28;20047;-74
2021/07/24 10:50:16;;;;;;;13.40;9.15;;;26.80;1.00;;;;;;5073519;28;20118;-73
2021/07/24 10:53:12;;;;;;;13.38;9.25;;;27.10;1.00;;;;;;5053975;28;20141;-74
2021/07/24 10:56:01;;;;;;;15.52;9.93;;;27.20;1.00;;;;;;5086114;28;20039;-73
2021/07/24 10:59:20;;;;;;;13.43;9.02;;;27.40;1.00;;;;;;5080210;28;20162;-73
2021/07/24 11:02:13;;;;;;;13.57;9.30;;;27.90;1.00;;;;;;5062556;28;20044;-73
2021/07/24 11:05:23;;;;;;;10.63;7.50;;;27.80;1.00;;;;;;5075923;28;20051;-73
2021/07/24 11:08:13;;;;;;;13.70;8.70;;;28.00;1.00;;;;;;5079050;28;20044;-73
2021/07/24 11:11:12;;;;;;;11.07;8.10;;;27.80;1.00;;;;;;5069769;28;20522;-74
2021/07/24 11:14:00;;;;;;;10.27;7.53;;;27.90;1.00;;;;;;5065052;28;20190;-73
2021/07/24 11:17:16;;;;;;;13.90;7.95;;;27.80;1.00;;;;;;5080105;28;20040;-73
2021/07/24 11:20:46;;;;;;;10.48;7.82;;;28.10;1.00;;;;;;5075254;28;20047;-74
2021/07/24 11:24:09;;;;;;;11.07;7.50;;;28.00;1.00;;;;;;5075525;28;20442;-74
2021/07/24 11:27:00;;;;;;;11.00;7.43;;;28.10;1.00;;;;;;5064294;28;20130;-74
2021/07/24 11:29:48;;;;;;;12.55;6.97;;;27.80;1.00;;;;;;5079014;28;20380;-74
2021/07/24 11:32:39;;;;;;;10.70;6.10;;;27.80;1.00;;;;;;5078291;28;20080;-73
2021/07/24 11:35:36;;;;;;;10.48;6.47;;;27.70;1.00;;;;;;5078238;28;20040;-73
2021/07/24 11:38:25;;;;;;;8.30;6.18;;;27.80;1.00;;;;;;5084703;28;20044;-73
2021/07/24 11:41:14;;;;;;;9.70;5.80;;;28.00;1.00;;;;;;5085226;28;20052;-74
2021/07/24 11:44:03;;;;;;;10.52;5.70;;;27.90;1.00;;;;;;5079790;28;20683;-73
2021/07/24 11:47:02;;;;;;;8.80;5.55;;;27.70;1.00;;;;;;5075871;28;20051;-74
2021/07/24 11:49:54;;;;;;;8.25;4.95;;;27.60;1.00;;;;;;5074901;28;20070;-74
2021/07/24 11:52:45;;;;;;;9.75;4.95;;;27.40;1.00;;;;;;5077274;28;20421;-73
2021/07/24 11:55:35;;;;;;;13.10;5.25;;;27.40;1.00;;;;;;5079756;28;20052;-73
2021/07/24 11:58:24;;;;;;;7.20;5.03;;;27.50;1.00;;;;;;5078012;28;20423;-73
2021/07/24 12:01:21;;;;;;;7.53;4.93;;;27.50;1.00;;;;;;5061429;28;20048;-74
2021/07/24 12:04:10;;;;;;;8.95;5.15;;;27.50;1.00;;;;;;5079982;28;20044;-74
2021/07/24 12:07:02;;;;;;;8.30;5.35;;;27.60;1.00;;;;;;5079104;28;20044;-74
2021/07/24 12:09:52;;;;;;;11.27;5.38;;;27.60;1.00;;;;;;5077763;28;20315;-73
2021/07/24 12:12:40;;;;;;;9.38;5.47;;;27.60;1.00;;;;;;5076381;28;20542;-74
2021/07/24 12:16:00;;;;;;;9.07;5.40;;;28.10;1.00;;;;;;5075244;28;20048;-74
2021/07/24 12:18:51;;;;;;;7.20;5.15;;;28.60;1.00;;;;;;5077370;28;20055;-74
2021/07/24 12:21:39;;;;;;;9.65;6.00;;;29.00;1.00;;;;;;5079344;28;20101;-74
2021/07/24 12:24:29;;;;;;;7.25;6.03;;;29.10;1.00;;;;;;5083048;28;20106;-74
2021/07/24 12:27:18;;;;;;;8.48;5.63;;;29.00;1.00;;;;;;5081406;28;20744;-73
2021/07/24 12:30:08;;;;;;;8.05;5.72;;;29.00;1.00;;;;;;5072634;28;20123;-74
2021/07/24 12:32:56;;;;;;;12.57;5.95;;;28.60;1.00;;;;;;5076131;28;20048;-73
2021/07/24 12:36:00;;;;;;;8.70;5.57;;;28.70;1.00;;;;;;5079752;28;20074;-74
2021/07/24 12:38:48;;;;;;;8.02;5.82;;;28.70;1.00;;;;;;5066674;28;20185;-75
2021/07/24 12:41:38;;;;;;;9.82;5.80;;;28.80;1.00;;;;;;5078315;28;20036;-74
2021/07/24 12:44:27;;;;;;;8.18;5.70;;;29.00;1.00;;;;;;5074493;28;20048;-74
2021/07/24 12:47:17;;;;;;;8.50;5.97;;;29.40;1.00;;;;;;5075175;28;20388;-74
2021/07/24 12:50:16;;;;;;;7.88;5.40;;;29.30;1.00;;;;;;5077161;28;20067;-73
2021/07/24 12:53:04;;;;;;;9.20;5.90;;;29.30;1.00;;;;;;5065119;28;20052;-74
2021/07/24 12:55:53;;;;;;;7.80;5.88;;;29.90;1.00;;;;;;5078611;28;20040;-74
2021/07/24 12:58:43;;;;;;;9.23;5.57;;;29.90;1.00;;;;;;5075664;28;20054;-73
2021/07/24 13:01:31;;;;;;;8.88;6.10;;;30.00;1.00;;;;;;5079834;28;21036;-75
2021/07/24 13:04:20;;;;;;;10.18;5.75;;;29.70;1.00;;;;;;5080321;28;20047;-74
2021/07/24 13:07:09;;;;;;;8.23;5.80;;;29.80;1.00;;;;;;5070598;28;20048;-73
2021/07/24 13:09:58;;;;;;;9.32;6.32;;;29.30;1.00;;;;;;5071899;28;20076;-73
2021/07/24 13:12:47;;;;;;;8.13;5.53;;;28.80;1.00;;;;;;5076125;28;20056;-74
2021/07/24 13:15:36;;;;;;;10.60;5.82;;;28.70;1.00;;;;;;5076509;28;20423;-74
2021/07/24 13:18:25;;;;;;;9.25;6.20;;;28.40;1.00;;;;;;5079665;28;20580;-74
2021/07/24 13:21:13;;;;;;;8.40;5.72;;;28.20;1.00;;;;;;5077922;28;20056;-74
2021/07/24 13:24:04;;;;;;;7.70;5.75;;;28.20;1.00;;;;;;5069288;28;20056;-74
2021/07/24 13:29:58;;;;;;;8.82;5.70;;;27.90;1.00;;;;;;5075589;28;20072;-74
2021/07/24 13:32:48;;;;;;;7.55;5.55;;;27.90;1.00;;;;;;5078000;28;20119;-74
2021/07/24 13:35:37;;;;;;;8.10;6.05;;;28.00;1.00;;;;;;5078837;28;20403;-73
2021/07/24 13:38:25;;;;;;;9.10;5.70;;;27.90;1.00;;;;;;5076371;28;20063;-74
2021/07/24 13:41:14;;;;;;;7.72;5.47;;;28.00;1.00;;;;;;5078832;28;20083;-74
2021/07/24 13:44:02;;;;;;;8.70;5.90;;;28.10;1.00;;;;;;5081331;28;20068;-73
2021/07/24 13:46:50;;;;;;;8.60;5.78;;;28.40;1.00;;;;;;5088015;28;20055;-74
2021/07/24 13:49:40;;;;;;;9.80;5.72;;;29.20;1.00;;;;;;5080850;28;20060;-74
2021/07/24 13:52:29;;;;;;;8.02;5.65;;;29.30;1.00;;;;;;5076897;28;20412;-74
2021/07/24 13:55:17;;;;;;;8.30;5.72;;;29.40;1.00;;;;;;5062030;28;20052;-73
2021/07/24 13:58:06;;;;;;;8.25;5.60;;;29.50;1.00;;;;;;5084863;28;20144;-73
2021/07/24 14:00:55;;;;;;;7.53;5.75;;;29.20;1.00;;;;;;5066886;28;20055;-74
2021/07/24 14:03:43;;;;;;;9.32;6.05;;;29.30;1.00;;;;;;5079527;28;20491;-75
2021/07/24 14:06:36;;;;;;;6.72;5.13;;;29.30;1.00;;;;;;5078691;28;20525;-75
2021/07/24 14:09:24;;;;;;;10.32;5.95;;;29.10;1.00;;;;;;5081273;28;20074;-73
2021/07/24 14:12:12;;;;;;;9.15;5.57;;;29.20;1.00;;;;;;5080586;28;20439;-74
2021/07/24 14:15:02;;;;;;;9.93;5.57;;;28.70;1.00;;;;;;5075854;28;20146;-74
2021/07/24 14:17:51;;;;;;;11.57;6.10;;;29.40;1.00;;;;;;5077439;28;20133;-74
2021/07/24 14:20:42;;;;;;;11.20;5.47;;;29.50;1.00;;;;;;5076375;28;20044;-72
2021/07/24 14:23:32;;;;;;;7.38;5.30;;;29.70;1.00;;;;;;5083492;28;20047;-73
2021/07/24 14:26:20;;;;;;;7.22;5.30;;;29.20;1.00;;;;;;5082282;28;20127;-73
2021/07/24 14:29:09;;;;;;;6.57;5.22;;;28.70;1.00;;;;;;5076211;28;20561;-73
2021/07/24 14:32:06;;;;;;;7.63;5.55;;;28.40;1.00;;;;;;5078809;28;20067;-73
2021/07/24 14:34:54;;;;;;;6.85;4.97;;;28.60;1.00;;;;;;5079286;28;20370;-72
2021/07/24 14:37:43;;;;;;;7.40;5.65;;;28.60;1.00;;;;;;5081994;28;20131;-73
2021/07/24 14:40:32;;;;;;;9.50;5.72;;;29.00;1.00;;;;;;5080014;28;20059;-73
2021/07/24 14:43:22;;;;;;;8.98;6.28;;;28.90;1.00;;;;;;5074386;28;20056;-73
2021/07/24 14:46:19;;;;;;;8.90;5.45;;;28.30;1.00;;;;;;5065521;28;20051;-73
2021/07/24 14:49:07;;;;;;;8.13;6.40;;;28.40;1.00;;;;;;5082279;28;20512;-72